RJNY  Shizuhama Airport

Add Bookmark

Japan

Status
Operational
Latitude Longitude
34° 48' 46" N 138° 17' 52" E
34.812801 138.298004
Local (DST + 9) UTC (GMT + 9)
Sep 17, 2014 04:27 Sep 16, 2014 19:27
Sunrise-Sunset Local UTC
Begin Civil Twilight 05:04 20:04
Sunrise 05:29 20:29
Sunset 05:53 08:53
End Civil Twilight 06:18 09:18

Current Weather

METAR Observed MVFR
RJNY 161827Z 02002KT 9999 FEW010 BKN015 21/20 Q1012 Tue, Sep 16, 2014 @ 18:27 UTC
(1 Hour ago)
Marginal Visual Flight Rules
Wind Visibility Clouds Conditions
020° at 2 knots (4 kph) 10 km or more
  • Few at 1,000' AGL
  • Broken at 1,500' AGL
  • No significant weather
Temperatures Readings Precipitation
Current Temp 21°C (70°F)
Dewpoint 20°C (68°F)
Humidity 94%
Altimeter 29.88"Hg
Sea Level Pressure 1012mb
Field Elevation 32.81'
None Recorded

Additional weather within a 92.6km radius of RJNY

Map ICAO Location
rjns 10.2km W (259°)
RJAT 76.7km N (043°)

24 Hour Weather History

Loading
-

24 Hour Weather Graphs

Loading
-

CheckWX.com is intended as a tool to help pilots better visualize weather data. It is not intended as a substitute for an official weather briefing obtained from a Flight Service Station. CheckWX.com does not meet the FAA requirements for an official pre-flight weather briefing. Therefore, it's important that pilots still call and obtain an official FSS pre-flight weather briefing.